createdAt,value
2019-04-23T00:02:53.512Z,1.90
2019-04-23T00:05:30.487Z,1.70
2019-04-23T00:12:52.944Z,1.40
2019-04-23T00:17:47.857Z,2.73
2019-04-23T00:20:22.083Z,1.93
2019-04-23T00:22:59.896Z,1.90
2019-04-23T00:25:43.867Z,1.60
2019-04-23T00:28:10.116Z,1.50
2019-04-23T00:30:36.624Z,2.00
2019-04-23T00:33:08.637Z,1.77
2019-04-23T00:35:35.531Z,2.10
2019-04-23T00:38:06.071Z,1.67
2019-04-23T00:40:35.425Z,1.70
2019-04-23T00:43:03.442Z,1.97
2019-04-23T00:45:35.909Z,1.70
2019-04-23T00:47:54.780Z,2.30
2019-04-23T00:50:41.325Z,1.93
2019-04-23T00:53:01.830Z,1.93
2019-04-23T00:55:31.263Z,2.00
2019-04-23T00:58:06.243Z,1.63
2019-04-23T01:00:34.154Z,2.00
2019-04-23T01:03:01.910Z,1.90
2019-04-23T01:05:31.020Z,2.10
2019-04-23T01:08:00.960Z,2.20
2019-04-23T01:10:34.895Z,2.10
2019-04-23T01:13:09.205Z,3.17
2019-04-23T01:18:10.902Z,2.07
2019-04-23T01:20:36.865Z,2.33
2019-04-23T01:22:48.767Z,2.23
2019-04-23T01:25:34.366Z,2.40
2019-04-23T01:31:05.280Z,2.07
2019-04-23T01:33:35.537Z,2.10
2019-04-23T01:36:14.028Z,2.20
2019-04-23T01:38:36.543Z,2.07
2019-04-23T01:40:53.721Z,2.50
2019-04-23T01:43:32.292Z,2.50
2019-04-23T01:46:01.338Z,2.53
2019-04-23T01:48:31.238Z,2.47
2019-04-23T01:51:10.801Z,1.90
2019-04-23T01:53:45.197Z,2.67
2019-04-23T01:56:02.511Z,2.20
2019-04-23T02:00:58.944Z,2.53
2019-04-23T02:03:26.544Z,2.30
2019-04-23T02:06:00.312Z,2.80
2019-04-23T02:08:25.980Z,2.83
2019-04-23T02:11:02.836Z,2.40
2019-04-23T02:13:31.272Z,2.33
2019-04-23T02:15:58.241Z,2.67
2019-04-23T02:18:45.531Z,2.60
2019-04-23T02:21:10.317Z,3.50
2019-04-23T02:23:42.417Z,2.73
2019-04-23T02:26:25.731Z,3.13
2019-04-23T02:28:54.554Z,2.70
2019-04-23T02:31:35.729Z,3.00
2019-04-23T02:33:49.561Z,3.20
2019-04-23T02:36:11.348Z,2.70
2019-04-23T02:38:50.464Z,2.97
2019-04-23T02:41:20.243Z,2.83
2019-04-23T02:43:48.964Z,3.07
2019-04-23T02:46:09.758Z,2.63
2019-04-23T02:48:54.601Z,2.70
2019-04-23T02:51:17.564Z,2.23
2019-04-23T02:56:44.534Z,3.17
2019-04-23T02:58:57.688Z,3.00
2019-04-23T03:06:14.899Z,2.80
2019-04-23T03:11:32.041Z,2.63
2019-04-23T03:16:33.055Z,3.17
2019-04-23T03:21:31.392Z,3.00
2019-04-23T03:24:11.251Z,3.50
2019-04-23T03:26:55.705Z,3.20
2019-04-23T03:29:25.735Z,3.20
2019-04-23T03:37:09.347Z,2.97
2019-04-23T03:39:03.218Z,3.07
2019-04-23T03:44:14.125Z,3.70
2019-04-23T03:46:36.671Z,3.27
2019-04-23T03:49:07.129Z,3.00
2019-04-23T03:51:43.380Z,3.30
2019-04-23T03:54:26.011Z,3.50
2019-04-23T03:56:56.239Z,3.40
2019-04-23T03:59:20.354Z,3.07
2019-04-23T04:01:47.696Z,3.30
2019-04-23T04:09:33.145Z,3.77
2019-04-23T04:11:57.106Z,2.90
2019-04-23T04:16:42.864Z,3.63
2019-04-23T04:19:32.331Z,3.03
2019-04-23T04:21:39.888Z,2.93
2019-04-23T04:29:11.700Z,4.17
2019-04-23T04:36:45.846Z,3.90
2019-04-23T04:39:12.961Z,3.70
2019-04-23T04:41:40.662Z,4.37
2019-04-23T04:49:11.933Z,3.83
2019-04-23T04:51:49.323Z,3.53
2019-04-23T04:56:45.039Z,3.50
2019-04-23T04:59:08.611Z,3.57
2019-04-23T05:01:36.745Z,4.10
2019-04-23T05:04:09.611Z,3.50
2019-04-23T05:06:48.344Z,3.40
2019-04-23T05:09:10.875Z,4.10
2019-04-23T05:11:46.113Z,3.90
2019-04-23T05:14:25.870Z,3.70
2019-04-23T05:16:37.056Z,3.90
2019-04-23T05:19:19.815Z,3.90
2019-04-23T05:21:46.900Z,4.10
2019-04-23T05:24:08.949Z,3.97
2019-04-23T05:26:27.652Z,3.93
2019-04-23T05:29:09.708Z,3.83
2019-04-23T05:31:27.638Z,3.30
2019-04-23T05:34:04.550Z,3.70
2019-04-23T05:36:35.930Z,4.00
2019-04-23T05:39:01.605Z,4.00
2019-04-23T05:46:32.797Z,3.53
2019-04-23T05:49:09.404Z,4.10
2019-04-23T05:54:19.103Z,3.97
2019-04-23T05:56:32.398Z,4.70
2019-04-23T05:59:08.784Z,3.90
2019-04-23T06:01:49.282Z,4.10
2019-04-23T06:04:14.067Z,3.90
2019-04-23T06:09:07.848Z,3.80
2019-04-23T06:11:49.079Z,3.87
2019-04-23T06:14:06.429Z,3.80
2019-04-23T06:16:36.164Z,3.80
2019-04-23T06:19:02.756Z,3.80
2019-04-23T06:21:44.325Z,4.23
2019-04-23T06:24:09.832Z,4.30
2019-04-23T06:29:06.747Z,3.77
2019-04-23T06:31:38.117Z,4.07
2019-04-23T06:34:10.861Z,4.17
2019-04-23T06:36:32.658Z,4.00
2019-04-23T06:39:02.311Z,3.80
2019-04-23T06:41:41.943Z,4.17
2019-04-23T06:44:14.493Z,3.73
2019-04-23T06:46:46.036Z,3.80
2019-04-23T06:49:00.870Z,3.73
2019-04-23T06:51:46.707Z,4.00
2019-04-23T06:54:13.442Z,4.67
2019-04-23T06:56:52.996Z,3.83
2019-04-23T06:59:11.997Z,3.97
2019-04-23T07:01:47.849Z,4.47
2019-04-23T07:04:15.025Z,3.50
2019-04-23T07:07:19.540Z,3.73
2019-04-23T07:09:12.153Z,3.93
2019-04-23T07:11:47.890Z,3.60
2019-04-23T07:14:21.910Z,3.40
2019-04-23T07:16:38.559Z,4.10
2019-04-23T07:19:09.630Z,3.77
2019-04-23T07:21:39.387Z,3.90
2019-04-23T07:26:41.840Z,4.30
2019-04-23T07:29:15.686Z,4.10
2019-04-23T07:31:57.468Z,3.87
2019-04-23T07:34:05.468Z,3.70
2019-04-23T07:44:40.261Z,3.93
2019-04-23T07:47:16.284Z,3.90
2019-04-23T07:49:43.391Z,4.07
2019-04-23T07:52:16.410Z,4.07
2019-04-23T07:54:42.457Z,4.03
2019-04-23T07:57:13.455Z,3.77
2019-04-23T07:59:45.442Z,4.03
2019-04-23T08:02:14.464Z,4.20
2019-04-23T08:04:44.636Z,4.03
2019-04-23T08:07:07.062Z,4.37
2019-04-23T08:09:48.063Z,3.87
2019-04-23T08:12:25.583Z,3.87
2019-04-23T08:14:40.840Z,3.57
2019-04-23T08:17:12.546Z,3.80
2019-04-23T08:19:49.671Z,3.40
2019-04-23T08:22:24.419Z,3.80
2019-04-23T08:24:50.629Z,4.20
2019-04-23T08:27:31.103Z,4.60
2019-04-23T08:30:00.171Z,3.63
2019-04-23T08:32:21.703Z,3.93
2019-04-23T08:35:01.230Z,3.70
2019-04-23T08:40:06.372Z,3.77
2019-04-23T08:42:45.361Z,3.70
2019-04-23T08:45:24.227Z,3.90
2019-04-23T08:50:40.058Z,4.40
2019-04-23T08:53:24.758Z,3.57
2019-04-23T08:55:46.895Z,3.80
2019-04-23T08:58:17.105Z,4.00
2019-04-23T09:00:49.920Z,4.10
2019-04-23T09:03:20.292Z,3.53
2019-04-23T09:05:50.589Z,3.60
2019-04-23T09:15:45.481Z,3.83
2019-04-23T09:18:14.422Z,3.50
2019-04-23T09:20:37.523Z,3.20
2019-04-23T09:23:12.870Z,3.90
2019-04-23T09:25:47.763Z,3.13
2019-04-23T09:28:22.613Z,3.43
2019-04-23T09:30:49.366Z,3.30
2019-04-23T09:33:32.466Z,4.00
2019-04-23T09:36:16.104Z,3.83
2019-04-23T09:39:10.576Z,3.80
2019-04-23T09:41:36.217Z,3.77
2019-04-23T09:44:39.177Z,3.43
2019-04-23T09:46:48.308Z,3.60
2019-04-23T09:49:20.820Z,3.50
2019-04-23T09:54:16.308Z,3.67
2019-04-23T09:59:26.860Z,3.00
2019-04-23T10:01:29.136Z,3.90
2019-04-23T10:04:00.186Z,3.73
2019-04-23T10:06:24.976Z,3.40
2019-04-23T10:08:53.604Z,3.30
2019-04-23T10:11:19.998Z,3.60
2019-04-23T10:13:48.440Z,3.50
2019-04-23T10:16:19.408Z,3.80
2019-04-23T10:18:47.028Z,3.63
2019-04-23T10:21:15.627Z,3.70
2019-04-23T10:23:45.116Z,4.00
2019-04-23T10:26:14.260Z,3.50
2019-04-23T10:28:49.889Z,3.70
2019-04-23T10:31:18.695Z,3.30
2019-04-23T10:33:48.155Z,3.67
2019-04-23T10:36:21.101Z,3.60
2019-04-23T10:38:54.042Z,3.90
2019-04-23T10:41:17.879Z,3.90
2019-04-23T10:43:50.099Z,4.07
2019-04-23T10:46:43.340Z,3.53
2019-04-23T10:49:42.472Z,3.53
2019-04-23T10:52:07.039Z,4.03
2019-04-23T10:54:36.379Z,3.60
2019-04-23T10:56:59.741Z,3.60
2019-04-23T11:04:54.129Z,3.57
2019-04-23T11:09:53.000Z,4.17
2019-04-23T11:12:24.304Z,3.90
2019-04-23T11:14:52.760Z,3.50
2019-04-23T11:17:21.531Z,3.93
2019-04-23T11:19:56.456Z,3.80
2019-04-23T11:22:42.659Z,3.70
2019-04-23T11:27:25.960Z,3.27
2019-04-23T11:29:57.456Z,3.63
2019-04-23T11:35:06.684Z,4.40
2019-04-23T11:37:28.758Z,3.23
2019-04-23T11:39:45.795Z,3.53
2019-04-23T11:44:45.853Z,3.40
2019-04-23T11:47:42.404Z,3.57
2019-04-23T11:52:21.323Z,3.10
2019-04-23T11:54:46.819Z,3.40
2019-04-23T11:57:32.462Z,3.67
2019-04-23T11:59:44.215Z,3.37
2019-04-23T12:02:29.686Z,3.40
2019-04-23T12:05:00.936Z,3.13
2019-04-23T12:10:07.547Z,3.27
2019-04-23T12:12:29.379Z,3.70
2019-04-23T12:15:19.532Z,4.10
2019-04-23T12:17:49.049Z,4.23
2019-04-23T12:20:03.349Z,3.30
2019-04-23T12:22:44.595Z,3.60
2019-04-23T12:30:01.541Z,3.43
2019-04-23T12:35:03.681Z,3.00
2019-04-23T12:38:04.158Z,3.10
2019-04-23T12:40:23.536Z,3.20
2019-04-23T12:42:57.068Z,3.20
2019-04-23T12:45:29.109Z,3.50
2019-04-23T12:47:58.209Z,3.53
2019-04-23T12:52:51.233Z,3.70
2019-04-23T12:55:21.607Z,2.97
2019-04-23T12:57:47.224Z,3.23
2019-04-23T13:00:23.227Z,3.67
2019-04-23T13:02:48.650Z,3.20
2019-04-23T13:05:14.554Z,4.17
2019-04-23T13:07:55.552Z,3.40
2019-04-23T13:10:27.356Z,3.27
2019-04-23T13:12:50.341Z,3.80
2019-04-23T13:15:18.780Z,3.27
2019-04-23T13:17:49.984Z,3.63
2019-04-23T13:25:39.843Z,3.13
2019-04-23T13:28:06.607Z,3.27
2019-04-23T13:38:22.449Z,3.57
2019-04-23T13:40:50.531Z,4.30
2019-04-23T13:43:13.947Z,2.90
2019-04-23T13:45:59.294Z,3.60
2019-04-23T13:48:10.791Z,3.97
2019-04-23T13:50:54.679Z,3.70
2019-04-23T13:53:20.997Z,3.60
2019-04-23T13:55:34.888Z,3.17
2019-04-23T14:01:00.681Z,4.20
2019-04-23T14:03:11.202Z,3.67
2019-04-23T14:05:41.179Z,3.17
2019-04-23T14:08:41.659Z,3.70
2019-04-23T14:10:44.878Z,4.60
2019-04-23T14:18:43.590Z,3.80
2019-04-23T14:20:43.430Z,3.37
2019-04-23T14:23:27.635Z,3.80
2019-04-23T14:26:00.023Z,3.63
2019-04-23T14:30:53.829Z,4.00
2019-04-23T14:33:17.671Z,4.47
2019-04-23T14:38:22.314Z,3.63
2019-04-23T14:43:14.534Z,3.47
2019-04-23T14:46:13.729Z,3.07
2019-04-23T14:48:28.745Z,3.80
2019-04-23T14:50:54.744Z,3.50
2019-04-23T14:53:18.391Z,3.90
2019-04-23T14:55:57.998Z,4.07
2019-04-23T14:58:36.055Z,3.87
2019-04-23T15:01:16.188Z,3.63
2019-04-23T15:03:32.409Z,3.73
2019-04-23T15:06:12.567Z,4.00
2019-04-23T15:08:40.320Z,3.77
2019-04-23T15:11:11.538Z,3.70
2019-04-23T15:13:27.540Z,3.83
2019-04-23T15:16:08.066Z,3.40
2019-04-23T15:18:53.750Z,3.97
2019-04-23T15:24:00.184Z,4.23
2019-04-23T15:28:32.713Z,3.80
2019-04-23T15:34:00.711Z,3.60
2019-04-23T15:36:38.881Z,3.60
2019-04-23T15:41:31.972Z,3.23
2019-04-23T15:44:00.491Z,3.80
2019-04-23T15:46:30.656Z,3.73
2019-04-23T15:49:05.648Z,3.27
2019-04-23T15:51:30.473Z,3.00
2019-04-23T15:53:48.564Z,4.00
2019-04-23T15:56:26.894Z,3.67
2019-04-23T15:59:04.317Z,3.77
2019-04-23T16:01:29.000Z,4.37
2019-04-23T16:03:24.328Z,3.67
2019-04-23T16:05:53.037Z,3.80
2019-04-23T16:08:59.387Z,4.07
2019-04-23T16:11:32.830Z,3.77
2019-04-23T16:14:11.321Z,3.80
2019-04-23T16:16:28.594Z,3.70
2019-04-23T16:19:04.006Z,3.43
2019-04-23T16:21:29.205Z,3.23
2019-04-23T16:24:01.197Z,3.67
2019-04-23T16:26:30.147Z,3.40
2019-04-23T16:29:22.656Z,3.70
2019-04-23T16:36:25.219Z,3.63
2019-04-23T16:39:04.296Z,3.47
2019-04-23T16:41:27.832Z,3.57
2019-04-23T16:44:00.003Z,3.57
2019-04-23T16:49:12.766Z,4.37
2019-04-23T16:51:25.152Z,3.47
2019-04-23T16:53:56.320Z,3.63
2019-04-23T16:56:26.088Z,4.23
2019-04-23T16:59:00.125Z,3.87
2019-04-23T17:01:34.698Z,3.93
2019-04-23T17:04:00.986Z,4.33
2019-04-23T17:06:25.906Z,3.93
2019-04-23T17:08:57.166Z,4.63
2019-04-23T17:11:24.950Z,3.97
2019-04-23T17:13:54.992Z,3.80
2019-04-23T17:16:25.137Z,4.37
2019-04-23T17:18:54.842Z,4.20
2019-04-23T17:21:23.773Z,5.90
2019-04-23T17:24:09.503Z,3.73
2019-04-23T17:26:25.497Z,3.70
2019-04-23T17:34:00.808Z,3.90
2019-04-23T17:41:38.691Z,4.30
2019-04-23T17:44:24.086Z,4.83
2019-04-23T17:46:39.440Z,3.70
2019-04-23T17:49:10.912Z,4.60
2019-04-23T17:51:46.905Z,4.43
2019-04-23T17:54:10.763Z,3.73
2019-04-23T17:56:45.780Z,3.53
2019-04-23T18:01:45.216Z,4.70
2019-04-23T18:04:31.345Z,4.30
2019-04-23T18:06:41.170Z,3.67
2019-04-23T18:09:16.743Z,3.80
2019-04-23T18:11:35.763Z,4.07
2019-04-23T18:14:08.187Z,3.70
2019-04-23T18:22:02.629Z,4.57
2019-04-23T18:24:22.685Z,4.53
2019-04-23T18:29:31.562Z,4.60
2019-04-23T18:32:06.279Z,5.13
2019-04-23T18:34:36.676Z,4.33
2019-04-23T18:37:08.951Z,4.17
2019-04-23T18:39:29.685Z,4.27
2019-04-23T18:42:11.585Z,5.03
2019-04-23T18:44:40.416Z,4.57
2019-04-23T18:47:00.400Z,4.00
2019-04-23T18:49:35.466Z,4.33
2019-04-23T18:52:04.987Z,4.70
2019-04-23T18:54:34.433Z,4.40
2019-04-23T18:57:10.055Z,4.47
2019-04-23T18:59:37.206Z,5.13
2019-04-23T19:02:08.039Z,4.53
2019-04-23T19:05:03.644Z,4.27
2019-04-23T19:07:57.128Z,4.40
2019-04-23T19:13:02.055Z,4.90
2019-04-23T19:17:50.536Z,6.10
2019-04-23T19:20:46.453Z,5.50
2019-04-23T19:23:04.755Z,5.90
2019-04-23T19:25:28.168Z,8.10
2019-04-23T19:28:09.139Z,5.70
2019-04-23T19:30:43.028Z,5.73
2019-04-23T19:33:05.558Z,5.53
2019-04-23T19:35:59.783Z,6.13
2019-04-23T19:40:46.777Z,5.60
2019-04-23T19:43:31.345Z,4.93
2019-04-23T19:45:53.043Z,5.87
2019-04-23T19:48:16.030Z,5.30
2019-04-23T19:51:44.306Z,6.37
2019-04-23T19:55:49.482Z,7.30
2019-04-23T19:58:17.920Z,5.53
2019-04-23T20:00:58.240Z,5.87
2019-04-23T20:03:22.604Z,7.23
2019-04-23T20:05:41.478Z,7.13
2019-04-23T20:08:16.770Z,6.67
2019-04-23T20:10:39.219Z,6.30
2019-04-23T20:13:04.930Z,6.07
2019-04-23T20:15:53.564Z,6.40
2019-04-23T20:17:59.267Z,5.13
2019-04-23T20:20:48.047Z,5.27
2019-04-23T20:23:13.692Z,5.73
2019-04-23T20:26:03.268Z,5.00
2019-04-23T20:28:33.801Z,5.20
2019-04-23T20:31:04.115Z,5.53
2019-04-23T20:34:07.700Z,6.20
2019-04-23T20:36:10.667Z,5.50
2019-04-23T20:38:39.998Z,5.20
2019-04-23T20:41:16.934Z,5.30
2019-04-23T20:43:47.215Z,5.00
2019-04-23T20:48:41.016Z,4.83
2019-04-23T20:51:08.605Z,5.37
2019-04-23T20:53:40.365Z,5.00
2019-04-23T20:56:08.499Z,5.20
2019-04-23T20:58:39.486Z,5.50
2019-04-23T21:03:47.279Z,5.00
2019-04-23T21:06:10.219Z,4.90
2019-04-23T21:11:08.693Z,5.00
2019-04-23T21:21:13.266Z,4.53
2019-04-23T21:23:44.056Z,5.37
2019-04-23T21:26:01.626Z,4.77
2019-04-23T21:33:50.795Z,4.60
2019-04-23T21:36:25.636Z,5.47
2019-04-23T21:41:49.986Z,5.40
2019-04-23T21:46:49.537Z,5.87
2019-04-23T21:49:25.138Z,5.17
2019-04-23T21:51:56.474Z,5.33
2019-04-23T21:54:14.941Z,5.10
2019-04-23T21:56:37.186Z,5.33
2019-04-23T22:06:47.786Z,5.40
2019-04-23T22:09:16.149Z,5.10
2019-04-23T22:14:16.979Z,5.80
2019-04-23T22:16:41.010Z,5.97
2019-04-23T22:21:43.050Z,5.10
2019-04-23T22:24:10.328Z,5.17
2019-04-23T22:31:44.034Z,5.27
2019-04-23T22:34:09.237Z,5.43
2019-04-23T22:36:39.231Z,5.87
2019-04-23T22:39:03.058Z,5.40
2019-04-23T22:46:50.182Z,5.00
2019-04-23T22:51:55.321Z,5.50
2019-04-23T22:54:14.126Z,5.50
2019-04-23T22:56:50.131Z,5.40
2019-04-23T22:59:28.134Z,5.13
2019-04-23T23:06:57.298Z,4.97
2019-04-23T23:09:40.647Z,4.83
2019-04-23T23:11:50.512Z,5.40
2019-04-23T23:14:23.814Z,4.63
2019-04-23T23:16:45.342Z,5.23
2019-04-23T23:22:01.925Z,4.90
2019-04-23T23:24:15.305Z,5.20
2019-04-23T23:26:51.838Z,4.90
2019-04-23T23:29:13.543Z,4.53
2019-04-23T23:31:55.889Z,4.10
2019-04-23T23:36:48.098Z,4.90
2019-04-23T23:39:29.236Z,4.93
2019-04-23T23:41:49.016Z,5.03
2019-04-23T23:44:29.877Z,4.57
2019-04-23T23:47:04.414Z,5.00
2019-04-23T23:49:14.140Z,4.70
2019-04-23T23:54:17.667Z,4.47
2019-04-23T23:56:38.844Z,4.57
2019-04-23T23:59:12.185Z,4.40
